createdAt,value
2018-11-23T00:00:18.515Z,24.17
2018-11-23T00:02:47.248Z,21.30
2018-11-23T00:05:15.426Z,30.50
2018-11-23T00:07:43.881Z,40.97
2018-11-23T00:10:13.624Z,37.67
2018-11-23T00:12:42.180Z,47.77
2018-11-23T00:15:12.245Z,37.67
2018-11-23T00:17:40.367Z,42.33
2018-11-23T00:20:10.535Z,53.23
2018-11-23T00:22:38.727Z,47.30
2018-11-23T00:25:08.399Z,40.97
2018-11-23T00:27:36.899Z,43.00
2018-11-23T00:30:06.324Z,40.93
2018-11-23T00:32:34.743Z,27.77
2018-11-23T00:35:02.838Z,26.67
2018-11-23T00:37:30.913Z,24.60
2018-11-23T00:39:58.987Z,25.50
2018-11-23T00:42:27.059Z,23.73
2018-11-23T00:44:55.143Z,26.97
2018-11-23T00:47:23.231Z,29.30
2018-11-23T00:49:51.303Z,31.77
2018-11-23T00:52:19.440Z,35.67
2018-11-23T00:54:47.521Z,30.10
2018-11-23T00:57:15.636Z,32.23
2018-11-23T00:59:43.711Z,29.17
2018-11-23T01:02:11.789Z,32.77
2018-11-23T01:04:39.914Z,25.73
2018-11-23T01:07:08.023Z,25.93
2018-11-23T01:09:36.149Z,26.70
2018-11-23T01:12:04.259Z,27.37
2018-11-23T01:14:32.365Z,26.63
2018-11-23T01:17:00.479Z,23.73
2018-11-23T01:19:28.559Z,27.13
2018-11-23T01:21:56.663Z,25.33
2018-11-23T01:24:24.785Z,24.57
2018-11-23T01:26:52.937Z,32.90
2018-11-23T01:29:21.023Z,33.20
2018-11-23T01:31:49.083Z,31.60
2018-11-23T01:34:17.175Z,27.50
2018-11-23T01:36:45.249Z,31.27
2018-11-23T01:39:13.320Z,32.43
2018-11-23T01:41:41.425Z,31.03
2018-11-23T01:44:09.768Z,27.37
2018-11-23T01:46:37.883Z,29.87
2018-11-23T01:49:06.020Z,34.27
2018-11-23T01:51:34.323Z,37.87
2018-11-23T01:54:02.434Z,33.63
2018-11-23T01:56:30.522Z,36.80
2018-11-23T01:58:58.811Z,35.87
2018-11-23T02:01:26.928Z,29.77
2018-11-23T02:03:55.362Z,29.43
2018-11-23T02:06:23.438Z,27.53
2018-11-23T02:08:51.629Z,24.33
2018-11-23T02:11:19.706Z,21.30
2018-11-23T02:13:47.784Z,25.30
2018-11-23T02:16:16.216Z,20.37
2018-11-23T02:18:44.309Z,20.97
2018-11-23T02:21:12.411Z,26.23
2018-11-23T02:23:40.513Z,22.30
2018-11-23T02:26:08.591Z,19.80
2018-11-23T02:28:36.949Z,19.97
2018-11-23T02:31:09.279Z,16.23
2018-11-23T02:33:38.698Z,21.37
2018-11-23T02:36:07.780Z,16.90
2018-11-23T02:38:35.839Z,19.57
2018-11-23T02:41:03.933Z,17.30
2018-11-23T02:43:32.020Z,19.77
2018-11-23T02:46:00.265Z,17.97
2018-11-23T02:48:28.403Z,20.93
2018-11-23T02:50:56.478Z,17.30
2018-11-23T02:53:24.561Z,19.43
2018-11-23T02:55:52.619Z,17.23
2018-11-23T02:58:20.795Z,17.40
2018-11-23T03:00:48.856Z,16.93
2018-11-23T03:03:17.261Z,17.77
2018-11-23T03:05:45.353Z,18.27
2018-11-23T03:08:13.431Z,18.93
2018-11-23T03:10:42.120Z,20.27
2018-11-23T03:13:10.221Z,18.53
2018-11-23T03:15:38.537Z,20.07
2018-11-23T03:18:06.615Z,18.73
2018-11-23T03:20:34.695Z,18.20
2018-11-23T03:23:02.787Z,17.80
2018-11-23T03:25:30.840Z,17.30
2018-11-23T03:27:59.207Z,21.27
2018-11-23T03:30:27.302Z,16.33
2018-11-23T03:32:55.379Z,19.37
2018-11-23T03:35:23.854Z,18.90
2018-11-23T03:37:51.940Z,17.90
2018-11-23T03:40:20.373Z,18.73
2018-11-23T03:42:48.446Z,20.07
2018-11-23T03:45:16.909Z,19.73
2018-11-23T03:47:45.360Z,19.37
2018-11-23T03:50:14.419Z,17.37
2018-11-23T03:52:43.249Z,19.27
2018-11-23T03:55:11.374Z,19.73
2018-11-23T03:57:39.555Z,21.23
2018-11-23T04:00:17.107Z,16.00
2018-11-23T04:02:41.514Z,21.77
2018-11-23T04:05:09.602Z,21.03
2018-11-23T04:07:37.688Z,17.57
2018-11-23T04:10:07.130Z,17.70
2018-11-23T04:12:35.199Z,21.93
2018-11-23T04:15:03.415Z,20.63
2018-11-23T04:17:31.792Z,23.93
2018-11-23T04:19:59.873Z,24.50
2018-11-23T04:22:27.955Z,29.80
2018-11-23T04:24:56.047Z,24.00
2018-11-23T04:27:24.178Z,24.20
2018-11-23T04:29:52.506Z,26.23
2018-11-23T04:32:20.833Z,23.43
2018-11-23T04:34:49.028Z,24.77
2018-11-23T04:37:17.111Z,23.37
2018-11-23T04:39:45.218Z,24.97
2018-11-23T04:42:13.537Z,32.60
2018-11-23T04:44:41.623Z,26.53
2018-11-23T04:47:09.717Z,25.17
2018-11-23T04:49:37.771Z,27.80
2018-11-23T04:52:06.245Z,24.80
2018-11-23T04:54:34.659Z,22.90
2018-11-23T04:57:03.107Z,26.30
2018-11-23T04:59:31.189Z,23.20
2018-11-23T05:01:59.299Z,24.67
2018-11-23T05:04:27.407Z,24.80
2018-11-23T05:06:55.495Z,22.77
2018-11-23T05:09:23.565Z,24.93
2018-11-23T05:11:51.649Z,34.17
2018-11-23T05:14:19.744Z,30.03
2018-11-23T05:16:47.805Z,25.40
2018-11-23T05:19:16.152Z,28.73
2018-11-23T05:21:44.267Z,25.97
2018-11-23T05:24:12.365Z,25.80
2018-11-23T05:26:40.442Z,26.67
2018-11-23T05:29:08.504Z,28.73
2018-11-23T05:31:36.571Z,27.33
2018-11-23T05:34:04.645Z,30.93
2018-11-23T05:36:32.950Z,25.80
2018-11-23T05:39:01.022Z,26.60
2018-11-23T05:41:29.092Z,24.60
2018-11-23T05:43:57.188Z,29.00
2018-11-23T05:46:25.265Z,27.80
2018-11-23T05:48:53.619Z,28.77
2018-11-23T05:51:21.707Z,26.77
2018-11-23T05:53:49.789Z,29.30
2018-11-23T05:56:17.886Z,24.57
2018-11-23T05:58:45.947Z,28.70
2018-11-23T06:01:14.286Z,28.07
2018-11-23T06:03:42.387Z,30.57
2018-11-23T06:06:10.461Z,25.30
2018-11-23T06:08:38.536Z,25.53
2018-11-23T06:11:06.896Z,26.73
2018-11-23T06:13:34.985Z,30.43
2018-11-23T06:16:03.061Z,25.40
2018-11-23T06:18:31.150Z,26.20
2018-11-23T06:20:59.244Z,25.70
2018-11-23T06:23:27.319Z,23.33
2018-11-23T06:26:10.486Z,26.60
2018-11-23T06:28:38.594Z,27.40
2018-11-23T06:31:06.676Z,28.67
2018-11-23T06:33:37.779Z,28.93
2018-11-23T06:36:06.054Z,27.63
2018-11-23T06:38:34.133Z,29.17
2018-11-23T06:41:02.478Z,28.77
2018-11-23T06:43:30.572Z,27.70
2018-11-23T06:45:59.663Z,28.87
2018-11-23T06:48:27.768Z,28.60
2018-11-23T06:50:55.973Z,23.90
2018-11-23T06:53:24.045Z,31.83
2018-11-23T06:55:52.356Z,29.33
2018-11-23T06:58:20.411Z,26.23
2018-11-23T07:00:48.478Z,26.43
2018-11-23T07:03:16.555Z,29.50
2018-11-23T07:05:44.649Z,33.57
2018-11-23T07:08:13.248Z,29.17
2018-11-23T07:10:42.122Z,28.50
2018-11-23T07:13:10.212Z,25.27
2018-11-23T07:15:38.831Z,26.87
2018-11-23T07:18:06.917Z,32.77
2018-11-23T07:20:35.009Z,30.77
2018-11-23T07:23:03.156Z,29.77
2018-11-23T07:25:31.213Z,26.10
2018-11-23T07:27:59.291Z,28.27
2018-11-23T07:30:28.335Z,33.83
2018-11-23T07:32:56.944Z,30.73
2018-11-23T07:35:25.056Z,30.30
2018-11-23T07:37:53.240Z,29.77
2018-11-23T07:40:34.547Z,31.40
2018-11-23T07:43:02.630Z,31.93
2018-11-23T07:45:30.853Z,31.63
2018-11-23T07:48:00.083Z,30.10
2018-11-23T07:50:28.373Z,32.10
2018-11-23T07:52:56.448Z,27.57
2018-11-23T07:55:24.536Z,31.90
2018-11-23T07:57:52.842Z,30.83
2018-11-23T08:00:22.411Z,29.87
2018-11-23T08:02:50.588Z,28.40
2018-11-23T08:05:19.456Z,27.13
2018-11-23T08:07:47.563Z,31.73
2018-11-23T08:10:15.273Z,28.30
2018-11-23T08:12:45.720Z,31.13
2018-11-23T08:15:17.314Z,42.47
2018-11-23T08:17:45.387Z,35.83
2018-11-23T08:20:14.693Z,31.20
2018-11-23T08:22:43.043Z,31.23
2018-11-23T08:25:12.132Z,28.33
2018-11-23T08:27:40.854Z,29.37
2018-11-23T08:30:11.239Z,30.23
2018-11-23T08:32:39.589Z,31.07
2018-11-23T08:35:07.771Z,30.60
2018-11-23T08:37:36.156Z,38.73
2018-11-23T08:40:06.295Z,29.57
2018-11-23T08:42:34.383Z,30.73
2018-11-23T08:45:02.528Z,29.57
2018-11-23T08:47:30.704Z,31.03
2018-11-23T08:49:58.822Z,29.97
2018-11-23T08:52:26.932Z,31.43
2018-11-23T08:54:55.021Z,26.60
2018-11-23T08:57:23.192Z,29.90
2018-11-23T08:59:51.269Z,28.00
2018-11-23T09:02:19.363Z,25.77
2018-11-23T09:04:47.499Z,33.40
2018-11-23T09:07:15.748Z,29.30
2018-11-23T09:09:43.957Z,29.63
2018-11-23T09:12:12.179Z,29.70
2018-11-23T09:14:40.297Z,29.73
2018-11-23T09:17:08.386Z,26.40
2018-11-23T09:19:36.483Z,33.43
2018-11-23T09:22:05.041Z,27.47
2018-11-23T09:24:33.141Z,28.23
2018-11-23T09:27:02.195Z,27.23
2018-11-23T09:29:30.259Z,28.93
2018-11-23T09:31:58.402Z,28.83
2018-11-23T09:34:26.504Z,29.70
2018-11-23T09:36:54.894Z,27.10
2018-11-23T09:39:23.286Z,29.07
2018-11-23T09:41:51.380Z,28.30
2018-11-23T09:44:19.459Z,32.10
2018-11-23T09:46:47.534Z,27.47
2018-11-23T09:49:15.651Z,30.13
2018-11-23T09:51:43.729Z,29.30
2018-11-23T09:54:11.826Z,29.20
2018-11-23T09:56:39.916Z,30.93
2018-11-23T09:59:08.041Z,27.87
2018-11-23T10:01:36.138Z,31.87
2018-11-23T10:04:04.300Z,28.97
2018-11-23T10:06:32.467Z,29.33
2018-11-23T10:09:00.588Z,28.17
2018-11-23T10:11:28.708Z,30.67
2018-11-23T10:13:56.838Z,27.40
2018-11-23T10:16:25.294Z,33.07
2018-11-23T10:18:53.383Z,29.77
2018-11-23T10:21:21.535Z,28.83
2018-11-23T10:23:49.638Z,30.27
2018-11-23T10:26:17.705Z,32.53
2018-11-23T10:28:46.059Z,32.50
2018-11-23T10:31:14.147Z,31.87
2018-11-23T10:33:42.234Z,27.67
2018-11-23T10:36:10.385Z,26.50
2018-11-23T10:38:38.466Z,27.73
2018-11-23T10:41:06.573Z,30.03
2018-11-23T10:43:34.663Z,32.80
2018-11-23T10:46:02.864Z,30.03
2018-11-23T10:48:30.952Z,29.67
2018-11-23T10:50:59.065Z,26.60
2018-11-23T10:53:27.466Z,32.20
2018-11-23T10:55:55.547Z,38.35
2018-11-23T10:58:23.644Z,30.40
2018-11-23T11:00:57.260Z,29.63
2018-11-23T11:03:32.856Z,30.17
2018-11-23T11:06:09.544Z,35.37
2018-11-23T11:08:38.043Z,27.60
2018-11-23T11:11:06.342Z,28.27
2018-11-23T11:13:34.443Z,25.43
2018-11-23T11:16:02.747Z,28.67
2018-11-23T11:18:30.828Z,30.40
2018-11-23T11:20:58.916Z,32.47
2018-11-23T11:23:27.151Z,29.23
2018-11-23T11:25:55.454Z,33.77
2018-11-23T11:28:23.615Z,28.87
2018-11-23T11:30:51.692Z,26.87
2018-11-23T11:33:19.781Z,28.93
2018-11-23T11:35:47.923Z,35.97
2018-11-23T11:38:16.128Z,30.50
2018-11-23T11:40:44.438Z,30.57
2018-11-23T11:43:12.551Z,35.17
2018-11-23T11:45:40.640Z,31.60
2018-11-23T11:48:08.748Z,30.10
2018-11-23T11:50:37.168Z,28.93
2018-11-23T11:53:05.435Z,30.83
2018-11-23T11:55:33.534Z,29.63
2018-11-23T11:58:01.631Z,30.30
2018-11-23T12:00:29.773Z,31.50
2018-11-23T12:02:57.832Z,31.73
2018-11-23T12:05:25.959Z,31.33
2018-11-23T12:07:54.078Z,33.00
2018-11-23T12:10:23.656Z,30.07
2018-11-23T12:12:52.003Z,30.47
2018-11-23T12:15:20.099Z,30.03
2018-11-23T12:17:48.191Z,30.60
2018-11-23T12:20:18.695Z,28.30
2018-11-23T12:22:49.064Z,29.37
2018-11-23T12:25:17.491Z,29.97
2018-11-23T12:27:45.572Z,28.90
2018-11-23T12:30:21.473Z,30.20
2018-11-23T12:32:50.726Z,31.13
2018-11-23T12:35:19.800Z,29.10
2018-11-23T12:37:47.913Z,30.37
2018-11-23T12:40:17.308Z,32.93
2018-11-23T12:42:46.031Z,34.47
2018-11-23T12:45:16.563Z,29.87
2018-11-23T12:47:44.918Z,28.00
2018-11-23T12:50:18.792Z,31.50
2018-11-23T12:52:47.146Z,34.17
2018-11-23T12:55:15.837Z,27.97
2018-11-23T12:57:44.192Z,30.33
2018-11-23T13:00:27.415Z,30.73
2018-11-23T13:03:00.610Z,32.10
2018-11-23T13:05:29.639Z,27.97
2018-11-23T13:07:59.104Z,29.07
2018-11-23T13:10:27.593Z,29.10
2018-11-23T13:12:56.500Z,29.93
2018-11-23T13:15:24.606Z,27.20
2018-11-23T13:17:52.777Z,28.67
2018-11-23T13:20:20.960Z,30.77
2018-11-23T13:22:49.040Z,32.70
2018-11-23T13:25:18.696Z,25.60
2018-11-23T13:27:46.773Z,32.87
2018-11-23T13:30:17.492Z,33.97
2018-11-23T13:32:45.580Z,33.63
2018-11-23T13:35:15.006Z,31.50
2018-11-23T13:37:43.427Z,30.60
2018-11-23T13:40:14.422Z,27.60
2018-11-23T13:42:43.051Z,29.67
2018-11-23T13:45:12.732Z,31.93
2018-11-23T13:47:41.074Z,32.73
2018-11-23T13:50:11.202Z,27.03
2018-11-23T13:52:39.277Z,29.17
2018-11-23T13:55:07.825Z,30.73
2018-11-23T13:57:36.144Z,29.47
2018-11-23T14:00:07.316Z,30.50
2018-11-23T14:02:35.412Z,29.50
2018-11-23T14:05:04.260Z,31.00
2018-11-23T14:07:32.367Z,28.77
2018-11-23T14:10:00.532Z,30.67
2018-11-23T14:12:28.600Z,31.53
2018-11-23T14:14:56.687Z,27.53
2018-11-23T14:17:24.780Z,25.10
2018-11-23T14:19:53.118Z,30.30
2018-11-23T14:22:21.182Z,31.50
2018-11-23T14:24:49.256Z,29.87
2018-11-23T14:27:17.350Z,26.63
2018-11-23T14:29:45.452Z,32.00
2018-11-23T14:32:13.799Z,32.30
2018-11-23T14:34:41.876Z,32.30
2018-11-23T14:37:09.949Z,30.80
2018-11-23T14:39:38.040Z,32.53
2018-11-23T14:42:06.426Z,34.13
2018-11-23T14:44:34.521Z,30.63
2018-11-23T14:47:02.596Z,30.37
2018-11-23T14:49:30.684Z,28.20
2018-11-23T14:51:58.784Z,35.37
2018-11-23T14:54:26.881Z,28.37
2018-11-23T14:56:55.200Z,34.07
2018-11-23T14:59:23.303Z,31.43
2018-11-23T15:01:52.072Z,28.67
2018-11-23T15:04:19.649Z,31.03
2018-11-23T15:06:47.766Z,28.87
2018-11-23T15:09:15.892Z,30.27
2018-11-23T15:11:44.019Z,33.83
2018-11-23T15:14:12.146Z,27.93
2018-11-23T15:16:40.432Z,31.23
2018-11-23T15:19:15.386Z,31.53
2018-11-23T15:21:43.852Z,32.53
2018-11-23T15:24:12.024Z,41.60
2018-11-23T15:26:40.208Z,30.03
2018-11-23T15:29:08.363Z,44.70
2018-11-23T15:31:36.444Z,49.37
2018-11-23T15:34:04.768Z,52.37
2018-11-23T15:36:32.927Z,96.80
2018-11-23T15:39:01.015Z,56.53
2018-11-23T15:41:29.100Z,42.03
2018-11-23T15:43:57.200Z,31.93
2018-11-23T15:46:25.684Z,31.20
2018-11-23T15:48:53.769Z,32.23
2018-11-23T15:51:21.861Z,31.47
2018-11-23T15:53:50.012Z,28.43
2018-11-23T15:56:18.102Z,31.97
2018-11-23T15:58:46.226Z,30.37
2018-11-23T16:01:14.301Z,33.23
2018-11-23T16:03:42.529Z,36.30
2018-11-23T16:06:10.606Z,33.37
2018-11-23T16:08:38.700Z,31.07
2018-11-23T16:11:07.126Z,30.93
2018-11-23T16:13:35.215Z,40.30
2018-11-23T16:16:03.323Z,28.03
2018-11-23T16:18:31.405Z,28.53
2018-11-23T16:20:59.520Z,29.37
2018-11-23T16:23:27.648Z,32.63
2018-11-23T16:25:55.748Z,29.80
2018-11-23T16:28:23.877Z,32.03
2018-11-23T16:30:52.216Z,28.77
2018-11-23T16:33:21.613Z,29.80
2018-11-23T16:35:49.716Z,31.87
2018-11-23T16:38:19.191Z,27.87
2018-11-23T16:40:49.729Z,31.57
2018-11-23T16:43:17.825Z,31.60
2018-11-23T16:45:46.368Z,35.03
2018-11-23T16:48:15.112Z,32.67
2018-11-23T16:50:43.879Z,31.60
2018-11-23T16:53:11.996Z,28.67
2018-11-23T16:55:40.635Z,30.37
2018-11-23T16:58:10.726Z,33.40
2018-11-23T17:00:39.568Z,32.57
2018-11-23T17:03:09.575Z,33.20
2018-11-23T17:05:45.346Z,30.30
2018-11-23T17:08:13.544Z,27.97
2018-11-23T17:10:42.295Z,31.10
2018-11-23T17:13:10.402Z,49.20
2018-11-23T17:15:38.466Z,33.33
2018-11-23T17:18:06.844Z,33.17
2018-11-23T17:20:35.351Z,31.80
2018-11-23T17:23:04.292Z,33.97
2018-11-23T17:25:32.731Z,32.90
2018-11-23T17:28:02.229Z,32.03
2018-11-23T17:30:31.432Z,30.67
2018-11-23T17:32:59.575Z,31.80
2018-11-23T17:35:28.271Z,33.37
2018-11-23T17:37:56.420Z,30.97
2018-11-23T17:40:25.971Z,30.83
2018-11-23T17:42:54.431Z,37.63
2018-11-23T17:45:24.438Z,32.07
2018-11-23T17:47:53.045Z,28.30
2018-11-23T17:50:22.619Z,29.67
2018-11-23T17:52:51.316Z,32.87
2018-11-23T17:55:19.440Z,31.20
2018-11-23T17:57:48.082Z,29.27
2018-11-23T18:00:19.629Z,32.67
2018-11-23T18:02:48.304Z,32.77
2018-11-23T18:05:17.300Z,32.57
2018-11-23T18:07:45.675Z,32.30
2018-11-23T18:10:15.696Z,32.40
2018-11-23T18:12:44.263Z,30.27
2018-11-23T18:15:15.563Z,32.27
2018-11-23T18:17:44.008Z,33.43
2018-11-23T18:20:13.455Z,30.93
2018-11-23T18:22:42.604Z,38.38
2018-11-23T18:25:13.197Z,32.47
2018-11-23T18:27:41.834Z,34.63
2018-11-23T18:30:11.321Z,36.03
2018-11-23T18:32:39.399Z,31.57
2018-11-23T18:35:09.068Z,28.57
2018-11-23T18:37:37.184Z,30.17
2018-11-23T18:40:08.364Z,29.03
2018-11-23T18:42:36.460Z,26.40
2018-11-23T18:45:07.191Z,33.50
2018-11-23T18:47:35.307Z,29.27
2018-11-23T18:50:03.407Z,28.00
2018-11-23T18:52:31.488Z,29.63
2018-11-23T18:54:59.829Z,29.97
2018-11-23T18:57:27.933Z,33.40
2018-11-23T18:59:56.017Z,30.60
2018-11-23T19:02:24.181Z,29.53
2018-11-23T19:04:52.260Z,28.50
2018-11-23T19:07:20.476Z,30.77
2018-11-23T19:09:48.592Z,30.47
2018-11-23T19:12:16.672Z,28.00
2018-11-23T19:14:44.787Z,30.13
2018-11-23T19:17:12.893Z,28.13
2018-11-23T19:19:42.092Z,29.97
2018-11-23T19:22:10.183Z,30.87
2018-11-23T19:24:38.269Z,32.07
2018-11-23T19:27:06.391Z,36.40
2018-11-23T19:29:34.481Z,30.37
2018-11-23T19:32:02.557Z,34.37
2018-11-23T19:34:30.666Z,29.23
2018-11-23T19:36:58.737Z,30.50
2018-11-23T19:39:26.856Z,34.03
2018-11-23T19:41:54.936Z,32.37
2018-11-23T19:44:23.039Z,27.67
2018-11-23T19:46:51.139Z,29.80
2018-11-23T19:49:19.212Z,39.90
2018-11-23T19:51:47.272Z,33.17
2018-11-23T19:54:15.359Z,30.77
2018-11-23T19:56:43.460Z,28.30
2018-11-23T19:59:11.551Z,24.27
2018-11-23T20:01:39.635Z,29.97
2018-11-23T20:04:07.723Z,28.10
2018-11-23T20:06:38.606Z,31.07
2018-11-23T20:09:06.632Z,33.83
2018-11-23T20:11:34.721Z,33.10
2018-11-23T20:14:02.800Z,35.07
2018-11-23T20:16:30.903Z,34.63
2018-11-23T20:18:58.993Z,33.10
2018-11-23T20:21:27.135Z,34.67
2018-11-23T20:23:55.221Z,31.43
2018-11-23T20:26:23.297Z,31.40
2018-11-23T20:28:51.384Z,28.40
2018-11-23T20:31:19.484Z,28.57
2018-11-23T20:33:47.560Z,30.77
2018-11-23T20:36:15.675Z,32.37
2018-11-23T20:38:43.765Z,34.67
2018-11-23T20:43:46.344Z,29.90
2018-11-23T20:46:14.415Z,35.87
2018-11-23T20:48:42.516Z,34.23
2018-11-23T20:51:10.576Z,60.90
2018-11-23T20:53:38.917Z,55.20
2018-11-23T20:56:08.013Z,49.07
2018-11-23T20:58:36.130Z,34.73
2018-11-23T21:01:04.252Z,28.53
2018-11-23T21:03:32.377Z,27.90
2018-11-23T21:06:00.452Z,31.33
2018-11-23T21:08:28.516Z,29.37
2018-11-23T21:10:56.625Z,31.63
2018-11-23T21:13:24.743Z,27.07
2018-11-23T21:15:52.811Z,28.47
2018-11-23T21:18:21.270Z,31.13
2018-11-23T21:20:49.362Z,30.70
2018-11-23T21:23:17.444Z,29.03
2018-11-23T21:25:45.528Z,27.43
2018-11-23T21:28:13.773Z,28.93
2018-11-23T21:30:41.872Z,31.47
2018-11-23T21:33:09.967Z,26.70
2018-11-23T21:35:38.040Z,28.37
2018-11-23T21:38:06.133Z,24.20
2018-11-23T21:40:34.215Z,23.97
2018-11-23T21:43:03.692Z,31.67
2018-11-23T21:45:31.768Z,28.23
2018-11-23T21:48:00.872Z,27.10
2018-11-23T21:50:28.939Z,30.80
2018-11-23T21:52:57.021Z,26.07
2018-11-23T21:55:25.426Z,29.43
2018-11-23T21:57:54.735Z,27.80
2018-11-23T22:00:23.099Z,30.87
2018-11-23T22:02:51.244Z,31.33
2018-11-23T22:05:19.345Z,31.03
2018-11-23T22:07:47.532Z,31.87
2018-11-23T22:10:17.599Z,30.07
2018-11-23T22:12:45.720Z,27.30
2018-11-23T22:15:22.050Z,29.90
2018-11-23T22:17:51.385Z,29.20
2018-11-23T22:20:20.445Z,29.13
2018-11-23T22:22:48.520Z,28.27
2018-11-23T22:25:18.669Z,28.27
2018-11-23T22:27:47.047Z,30.70
2018-11-23T22:30:19.633Z,31.03
2018-11-23T22:32:47.697Z,27.30
2018-11-23T22:35:15.773Z,28.67
2018-11-23T22:37:43.874Z,29.57
2018-11-23T22:40:14.828Z,32.83
2018-11-23T22:42:44.143Z,27.77
2018-11-23T22:45:13.002Z,29.00
2018-11-23T22:47:41.603Z,30.60
2018-11-23T22:50:14.927Z,26.57
2018-11-23T22:52:43.040Z,29.20
2018-11-23T22:55:11.989Z,29.83
2018-11-23T22:57:40.847Z,26.73
2018-11-23T23:00:20.325Z,32.60
2018-11-23T23:02:48.758Z,29.57
2018-11-23T23:05:16.929Z,30.90
2018-11-23T23:07:45.004Z,28.53
2018-11-23T23:10:13.080Z,32.87
2018-11-23T23:12:41.413Z,28.30
2018-11-23T23:15:10.667Z,27.93
2018-11-23T23:17:38.948Z,28.37
2018-11-23T23:20:10.675Z,30.50
2018-11-23T23:22:38.847Z,30.23
2018-11-23T23:25:08.218Z,31.30
2018-11-23T23:27:36.532Z,33.03
2018-11-23T23:30:06.584Z,29.23
2018-11-23T23:32:34.654Z,27.17
2018-11-23T23:35:02.723Z,30.77
2018-11-23T23:37:30.852Z,29.60
2018-11-23T23:39:59.042Z,27.73
2018-11-23T23:42:27.120Z,30.60
2018-11-23T23:44:55.255Z,27.20
2018-11-23T23:47:23.319Z,28.37
2018-11-23T23:49:51.714Z,27.57
2018-11-23T23:52:19.809Z,28.10
2018-11-23T23:54:47.912Z,30.33
2018-11-23T23:57:15.983Z,30.83
2018-11-23T23:59:44.057Z,32.97
